Ora Direzione Vento Velocita' Vento Media Vento Raffica Max. Temperatura Wind Chill Pioggia Pressione
20:34:36.0277 °(W)0.0 Kts0.0 Kts0.0 Kts12.5 °C0.0 °C0.0 mm-173.3 Hpa
20:12:53.0288 °(WNW)0.0 Kts0.0 Kts0.0 Kts13.1 °C0.0 °C0.0 mm-173.4 Hpa
19:52:52.0299 °(WNW)0.0 Kts0.0 Kts0.0 Kts13.4 °C0.0 °C0.0 mm-173.5 Hpa
19:33:07.0308 °(NW)0.0 Kts0.0 Kts0.0 Kts13.3 °C0.0 °C0.0 mm-173.5 Hpa
19:13:20.0307 °(NW)0.0 Kts0.0 Kts0.0 Kts13.8 °C0.0 °C0.0 mm-173.6 Hpa
18:53:33.0309 °(NW)0.0 Kts0.0 Kts0.0 Kts13.6 °C0.0 °C0.0 mm-173.6 Hpa
18:33:54.0292 °(WNW)0.0 Kts0.0 Kts0.0 Kts13.3 °C0.0 °C0.0 mm-173.5 Hpa
18:14:14.0288 °(WNW)0.0 Kts0.0 Kts0.0 Kts13.3 °C0.0 °C0.0 mm-173.5 Hpa
17:54:30.0278 °(W)0.0 Kts0.0 Kts0.0 Kts13.1 °C0.0 °C0.0 mm-173.4 Hpa
17:32:31.0300 °(WNW)0.0 Kts0.0 Kts0.0 Kts13.8 °C0.0 °C0.0 mm-173.6 Hpa
17:12:55.0293 °(WNW)0.0 Kts0.0 Kts0.0 Kts13.0 °C0.0 °C0.0 mm-173.4 Hpa
16:53:24.0302 °(WNW)0.0 Kts0.0 Kts0.0 Kts14.2 °C0.0 °C0.0 mm-173.7 Hpa
16:33:33.0286 °(WNW)0.0 Kts0.0 Kts0.0 Kts14.1 °C0.0 °C0.0 mm-173.7 Hpa
16:13:54.0281 °(W)0.0 Kts0.0 Kts0.0 Kts14.3 °C0.0 °C0.0 mm-173.8 Hpa
15:53:48.0317 °(NW)0.0 Kts0.0 Kts0.0 Kts13.8 °C0.0 °C0.0 mm-173.6 Hpa
15:34:09.0282 °(WNW)0.0 Kts0.0 Kts0.0 Kts13.6 °C0.0 °C0.0 mm-173.6 Hpa
15:14:29.0241 °(WSW)0.0 Kts0.0 Kts0.0 Kts13.6 °C0.0 °C0.0 mm-173.6 Hpa
14:52:45.0251 °(WSW)0.0 Kts0.0 Kts0.0 Kts16.7 °C0.0 °C0.0 mm-174.4 Hpa
14:33:12.0245 °(WSW)0.0 Kts0.0 Kts0.0 Kts16.7 °C0.0 °C0.0 mm-174.4 Hpa
14:13:40.0243 °(WSW)0.0 Kts0.0 Kts0.0 Kts15.9 °C0.0 °C0.0 mm-174.2 Hpa